TimeCDT,TemperatureF,Dew PointF,Humidity,Sea Level PressureIn,VisibilityMPH,Wind Direction,Wind SpeedMPH,Gust SpeedMPH,PrecipitationIn,Events,Conditions,WindDirDegrees,DateUTC
12:53 AM,34.0,28.9,82,29.75,10.0,South,8.1,-,N/A,,Clear,170,2014-03-30 05:53:00
1:53 AM,35.1,30.0,82,29.73,10.0,South,6.9,-,N/A,,Clear,170,2014-03-30 06:53:00
2:53 AM,30.9,28.0,89,29.75,10.0,West,3.5,-,N/A,,Clear,280,2014-03-30 07:53:00
3:53 AM,27.0,26.1,96,29.75,10.0,NE,5.8,-,N/A,,Clear,50,2014-03-30 08:53:00
4:53 AM,24.1,23.0,96,29.77,8.0,East,5.8,-,N/A,,Clear,80,2014-03-30 09:53:00
5:53 AM,24.1,23.0,96,29.78,9.0,NNE,5.8,-,N/A,,Clear,20,2014-03-30 10:53:00
6:53 AM,24.1,23.0,96,29.80,9.0,Calm,Calm,-,N/A,,Clear,0,2014-03-30 11:53:00
7:53 AM,26.1,25.0,96,29.82,7.0,Calm,Calm,-,N/A,,Clear,0,2014-03-30 12:53:00
8:53 AM,32.0,28.9,88,29.83,8.0,NNW,5.8,-,N/A,,Clear,330,2014-03-30 13:53:00
9:53 AM,39.9,33.1,77,29.83,10.0,NW,3.5,-,N/A,,Clear,320,2014-03-30 14:53:00
10:53 AM,46.9,34.0,61,29.83,10.0,North,8.1,-,N/A,,Clear,350,2014-03-30 15:53:00
11:53 AM,53.1,36.0,52,29.82,10.0,North,8.1,-,N/A,,Clear,10,2014-03-30 16:53:00
12:53 PM,55.9,36.0,47,29.80,10.0,ENE,12.7,-,N/A,,Clear,60,2014-03-30 17:53:00
1:53 PM,57.9,37.0,46,29.79,10.0,NE,11.5,-,N/A,,Clear,50,2014-03-30 18:53:00
2:53 PM,60.1,37.0,42,29.76,10.0,ENE,12.7,21.9,N/A,,Clear,60,2014-03-30 19:53:00
3:53 PM,61.0,35.1,38,29.76,10.0,East,12.7,-,N/A,,Clear,80,2014-03-30 20:53:00
4:53 PM,62.1,36.0,38,29.73,10.0,ENE,16.1,24.2,N/A,,Clear,70,2014-03-30 21:53:00
5:53 PM,57.9,35.1,42,29.75,10.0,ENE,16.1,-,N/A,,Clear,60,2014-03-30 22:53:00
6:53 PM,53.1,37.0,55,29.75,10.0,NE,15.0,-,N/A,,Clear,40,2014-03-30 23:53:00
7:53 PM,46.9,36.0,66,29.76,10.0,NE,19.6,25.3,N/A,,Clear,40,2014-03-31 00:53:00
8:53 PM,41.0,33.1,73,29.76,10.0,NE,21.9,31.1,N/A,,Clear,50,2014-03-31 01:53:00
9:53 PM,37.9,33.1,83,29.76,10.0,NE,19.6,31.1,N/A,,Clear,40,2014-03-31 02:53:00
10:53 PM,35.1,30.9,85,29.75,10.0,NE,17.3,26.5,N/A,,Clear,40,2014-03-31 03:53:00
11:53 PM,34.0,30.0,85,29.72,10.0,NE,21.9,29.9,N/A,,Clear,40,2014-03-31 04:53:00